Terminal Aerodrome Forecast
Issued by NWS

Home | Current Version | Previous Version | Text Only | Print | Product List | Glossary On
Versions: 1 2 3 4 5 6 7 8 9 10 11 12 13 14 15 16 17 18 19
000
FTUS44 KLZK 041300 AAA
TAFPBF
TAF AMD
KPBF 041346Z 0414/0512 VRB05KT P6SM VCSH BKN005 OVC020
      TEMPO 0414/0416 5SM -RA BR OVC004
     FM041600 01008KT 5SM -RA BR OVC008
     FM041800 01012G20KT 4SM -RA BR OVC005
     FM050000 01016G24KT 3SM -FZRA BR OVC003
     FM050300 02016G24KT 2SM -PL BR OVC003
     FM050900 02018G24KT 1SM -SN BR OVC003=

USA.gov is the U.S. government's official web portal to all federal, state and local government web resources and services.